createdAt,value
2018-03-11T00:00:05.573Z,11.67
2018-03-11T00:01:27.882Z,11.67
2018-03-11T00:02:49.794Z,11.61
2018-03-11T00:04:11.705Z,11.64
2018-03-11T00:05:33.319Z,11.61
2018-03-11T00:06:55.617Z,11.64
2018-03-11T00:08:17.647Z,11.6
2018-03-11T00:09:39.550Z,11.61
2018-03-11T00:11:01.221Z,11.57
2018-03-11T00:12:22.829Z,11.67
2018-03-11T00:13:44.714Z,11.58
2018-03-11T00:15:06.595Z,11.52
2018-03-11T00:16:28.777Z,11.57
2018-03-11T00:17:50.489Z,11.52
2018-03-11T00:19:12.190Z,11.54
2018-03-11T00:20:34.144Z,11.6
2018-03-11T00:21:55.505Z,11.51
2018-03-11T00:23:17.409Z,11.57
2018-03-11T00:24:38.760Z,11.47
2018-03-11T00:26:00.918Z,11.55
2018-03-11T00:27:22.846Z,11.47
2018-03-11T00:28:45.030Z,11.54
2018-03-11T00:30:06.484Z,11.49
2018-03-11T00:31:28.403Z,11.49
2018-03-11T00:32:50.330Z,11.51
2018-03-11T00:34:12.296Z,11.54
2018-03-11T00:35:34.328Z,11.47
2018-03-11T00:36:55.959Z,11.47
2018-03-11T00:38:17.151Z,11.44
2018-03-11T00:39:38.839Z,11.42
2018-03-11T00:41:00.251Z,11.43
2018-03-11T00:42:22.150Z,11.46
2018-03-11T00:43:44.312Z,11.43
2018-03-11T00:45:06.048Z,11.47
2018-03-11T00:46:27.917Z,11.54
2018-03-11T00:47:49.677Z,11.55
2018-03-11T00:49:11.571Z,11.51
2018-03-11T00:50:33.493Z,11.52
2018-03-11T00:51:55.410Z,11.51
2018-03-11T00:53:17.580Z,11.52
2018-03-11T00:54:39.486Z,11.54
2018-03-11T00:56:01.111Z,11.54
2018-03-11T00:57:23.104Z,11.51
2018-03-11T00:58:44.794Z,11.57
2018-03-11T01:00:06.446Z,11.54
2018-03-11T01:01:28.426Z,11.54
2018-03-11T01:02:50.040Z,11.55
2018-03-11T01:04:12.013Z,11.54
2018-03-11T01:05:33.945Z,11.51
2018-03-11T01:06:55.580Z,11.47
2018-03-11T01:08:17.171Z,11.54
2018-03-11T01:09:38.530Z,11.58
2018-03-11T01:11:00.240Z,11.49
2018-03-11T01:12:22.172Z,11.51
2018-03-11T01:13:43.830Z,11.49
2018-03-11T01:15:05.493Z,11.52
2018-03-11T01:16:27.393Z,11.55
2018-03-11T01:17:49.575Z,11.58
2018-03-11T01:19:11.718Z,11.52
2018-03-11T01:20:33.335Z,11.47
2018-03-11T01:21:55.206Z,11.43
2018-03-11T01:23:17.081Z,11.54
2018-03-11T01:24:38.802Z,11.43
2018-03-11T01:26:01.066Z,11.51
2018-03-11T01:27:23.323Z,11.43
2018-03-11T01:28:45.280Z,11.46
2018-03-11T01:30:07.191Z,11.43
2018-03-11T01:31:29.091Z,11.49
2018-03-11T01:32:50.950Z,11.51
2018-03-11T01:34:12.028Z,11.43
2018-03-11T01:35:33.971Z,11.47
2018-03-11T01:36:55.646Z,11.54
2018-03-11T01:38:17.782Z,11.55
2018-03-11T01:39:39.924Z,11.52
2018-03-11T01:41:02.087Z,11.58
2018-03-11T01:42:24.231Z,11.54
2018-03-11T01:43:46.372Z,11.52
2018-03-11T01:45:08.504Z,11.51
2018-03-11T01:46:30.736Z,11.55
2018-03-11T01:47:52.621Z,11.55
2018-03-11T01:49:14.815Z,11.62
2018-03-11T01:50:36.438Z,11.54
2018-03-11T01:51:58.309Z,11.51
2018-03-11T01:53:20.314Z,11.57
2018-03-11T01:54:42.455Z,11.58
2018-03-11T01:56:04.613Z,11.6
2018-03-11T01:57:26.230Z,11.6
2018-03-11T01:58:47.902Z,11.6
2018-03-11T02:00:10.132Z,11.61
2018-03-11T02:02:04.136Z,11.58
2018-03-11T02:03:26.288Z,11.61
2018-03-11T02:04:47.972Z,11.57
2018-03-11T02:06:09.604Z,11.58
2018-03-11T02:07:31.772Z,11.55
2018-03-11T02:08:53.491Z,11.61
2018-03-11T02:10:14.853Z,11.62
2018-03-11T02:11:35.979Z,11.64
2018-03-11T02:12:57.606Z,11.64
2018-03-11T02:14:19.223Z,11.62
2018-03-11T02:15:40.889Z,11.61
2018-03-11T02:17:02.502Z,11.65
2018-03-11T02:18:24.436Z,11.55
2018-03-11T02:19:46.582Z,11.6
2018-03-11T02:21:08.737Z,11.61
2018-03-11T02:22:30.841Z,11.61
2018-03-11T02:23:52.443Z,11.64
2018-03-11T02:25:14.036Z,11.58
2018-03-11T02:26:36.217Z,11.52
2018-03-11T02:27:58.383Z,11.57
2018-03-11T02:29:20.003Z,11.57
2018-03-11T02:30:42.252Z,11.65
2018-03-11T02:32:03.630Z,11.51
2018-03-11T02:33:25.346Z,11.47
2018-03-11T02:34:47.221Z,11.55
2018-03-11T02:36:09.376Z,11.47
2018-03-11T02:37:31.273Z,11.54
2018-03-11T02:40:14.552Z,11.51
2018-03-11T02:41:36.795Z,11.46
2018-03-11T02:42:58.966Z,11.42
2018-03-11T02:44:21.105Z,11.4
2018-03-11T02:45:42.732Z,11.46
2018-03-11T02:47:04.882Z,11.51
2018-03-11T02:48:25.968Z,11.46
2018-03-11T02:49:47.714Z,11.47
2018-03-11T02:51:09.576Z,11.35
2018-03-11T02:52:30.912Z,11.43
2018-03-11T02:53:52.536Z,11.4
2018-03-11T02:55:14.148Z,11.43
2018-03-11T02:56:36.371Z,11.42
2018-03-11T02:57:58.264Z,11.39
2018-03-11T02:59:19.906Z,11.29
2018-03-11T03:00:41.521Z,11.36
2018-03-11T03:02:03.168Z,11.37
2018-03-11T03:03:25.364Z,11.36
2018-03-11T03:04:47.669Z,11.4
2018-03-11T03:06:09.824Z,11.39
2018-03-11T03:07:31.971Z,11.33
2018-03-11T03:08:53.322Z,11.43
2018-03-11T03:10:14.682Z,11.37
2018-03-11T03:11:36.007Z,11.33
2018-03-11T03:12:57.912Z,11.36
2018-03-11T03:14:19.584Z,11.25
2018-03-11T03:15:41.832Z,11.28
2018-03-11T03:17:03.760Z,11.27
2018-03-11T03:18:25.511Z,11.29
2018-03-11T03:19:47.392Z,11.28
2018-03-11T03:21:09.336Z,11.27
2018-03-11T03:22:31.227Z,11.22
2018-03-11T03:23:52.952Z,11.19
2018-03-11T03:25:14.574Z,11.19
2018-03-11T03:26:36.237Z,11.17
2018-03-11T03:27:58.139Z,11.15
2018-03-11T03:29:20.013Z,11.1
2018-03-11T03:30:41.970Z,11.09
2018-03-11T03:32:04.405Z,11.1
2018-03-11T03:33:26.316Z,11.07
2018-03-11T03:34:48.182Z,11.02
2018-03-11T03:36:10.066Z,10.96
2018-03-11T03:37:31.424Z,10.97
2018-03-11T03:38:52.751Z,10.88
2018-03-11T03:40:14.897Z,10.94
2018-03-11T03:41:36.918Z,10.91
2018-03-11T03:42:58.581Z,10.88
2018-03-11T03:44:20.451Z,10.76
2018-03-11T03:45:41.797Z,10.78
2018-03-11T03:47:03.831Z,10.89
2018-03-11T03:48:25.536Z,10.84
2018-03-11T03:49:46.882Z,10.91
2018-03-11T03:51:08.239Z,10.88
2018-03-11T03:52:29.842Z,10.86
2018-03-11T03:53:51.192Z,10.91
2018-03-11T03:55:13.356Z,10.86
2018-03-11T03:56:35.491Z,10.91
2018-03-11T03:57:57.372Z,10.88
2018-03-11T03:59:19.252Z,10.94
2018-03-11T04:00:41.234Z,10.85
2018-03-11T04:02:02.834Z,10.85
2018-03-11T04:03:24.982Z,10.82
2018-03-11T04:04:46.323Z,10.79
2018-03-11T04:06:08.236Z,10.79
2018-03-11T04:07:29.849Z,10.82
2018-03-11T04:08:51.452Z,10.74
2018-03-11T04:10:13.594Z,10.74
2018-03-11T04:11:35.244Z,10.81
2018-03-11T04:12:57.187Z,10.7
2018-03-11T04:14:19.334Z,10.71
2018-03-11T04:15:40.972Z,10.78
2018-03-11T04:17:03.119Z,10.73
2018-03-11T04:18:24.459Z,10.76
2018-03-11T04:19:45.821Z,10.68
2018-03-11T04:21:07.961Z,10.63
2018-03-11T04:22:29.567Z,10.63
2018-03-11T04:23:51.175Z,10.6
2018-03-11T04:25:12.535Z,10.67
2018-03-11T04:26:34.163Z,10.64
2018-03-11T04:27:55.901Z,10.64
2018-03-11T04:29:18.044Z,10.73
2018-03-11T04:30:39.908Z,10.67
2018-03-11T04:32:01.952Z,10.66
2018-03-11T04:33:24.166Z,10.68
2018-03-11T04:34:46.046Z,10.76
2018-03-11T04:36:07.666Z,10.74
2018-03-11T04:37:29.584Z,10.76
2018-03-11T04:38:51.188Z,10.71
2018-03-11T04:40:12.813Z,10.79
2018-03-11T04:41:34.713Z,10.78
2018-03-11T04:42:56.308Z,10.81
2018-03-11T04:44:18.279Z,10.81
2018-03-11T04:45:39.896Z,10.84
2018-03-11T04:47:01.231Z,10.7
2018-03-11T04:48:23.142Z,10.81
2018-03-11T04:49:44.789Z,10.81
2018-03-11T04:51:06.120Z,10.78
2018-03-11T04:52:28.229Z,10.82
2018-03-11T04:53:49.586Z,10.86
2018-03-11T04:55:11.453Z,10.74
2018-03-11T04:56:33.061Z,10.84
2018-03-11T04:57:54.943Z,10.79
2018-03-11T04:59:16.026Z,10.85
2018-03-11T05:00:37.872Z,10.84
2018-03-11T05:01:59.601Z,10.88
2018-03-11T05:03:21.742Z,10.79
2018-03-11T05:04:43.642Z,10.91
2018-03-11T05:06:05.557Z,10.79
2018-03-11T05:07:27.527Z,10.88
2018-03-11T05:08:49.254Z,10.86
2018-03-11T05:10:11.121Z,10.78
2018-03-11T05:11:33.042Z,10.92
2018-03-11T05:12:54.943Z,10.85
2018-03-11T05:14:16.862Z,10.85
2018-03-11T05:15:38.613Z,10.88
2018-03-11T05:17:00.216Z,10.91
2018-03-11T05:18:21.862Z,10.89
2018-03-11T05:19:43.519Z,10.88
2018-03-11T05:21:05.762Z,10.86
2018-03-11T05:22:27.628Z,10.86
2018-03-11T05:23:49.303Z,10.88
2018-03-11T05:25:11.163Z,10.91
2018-03-11T05:26:32.868Z,10.88
2018-03-11T05:27:54.739Z,10.92
2018-03-11T05:29:16.335Z,10.88
2018-03-11T05:30:37.923Z,10.88
2018-03-11T05:31:59.802Z,10.88
2018-03-11T05:33:21.462Z,10.92
2018-03-11T05:34:43.687Z,10.94
2018-03-11T05:36:05.543Z,10.89
2018-03-11T05:37:27.141Z,10.86
2018-03-11T05:38:48.740Z,10.91
2018-03-11T05:40:10.157Z,10.85
2018-03-11T05:41:32.103Z,10.82
2018-03-11T05:42:52.923Z,10.86
2018-03-11T05:44:14.533Z,10.89
2018-03-11T05:45:36.451Z,10.99
2018-03-11T05:46:58.372Z,10.94
2018-03-11T05:48:19.978Z,10.88
2018-03-11T05:49:42.113Z,10.94
2018-03-11T05:51:03.458Z,10.97
2018-03-11T05:52:25.337Z,10.96
2018-03-11T05:53:47.467Z,11
2018-03-11T05:55:09.587Z,10.94
2018-03-11T05:56:31.209Z,10.94
2018-03-11T05:57:52.963Z,10.97
2018-03-11T05:59:14.654Z,11
2018-03-11T06:00:36.317Z,11
2018-03-11T06:01:57.936Z,11.02
2018-03-11T06:03:20.132Z,10.94
2018-03-11T06:04:42.271Z,10.94
2018-03-11T06:06:04.429Z,10.94
2018-03-11T06:07:25.532Z,11.02
2018-03-11T06:08:47.686Z,10.94
2018-03-11T06:10:09.284Z,10.96
2018-03-11T06:11:30.700Z,10.96
2018-03-11T06:12:52.041Z,10.97
2018-03-11T06:14:14.168Z,10.89
2018-03-11T06:15:35.784Z,10.91
2018-03-11T06:16:57.111Z,10.88
2018-03-11T06:18:18.554Z,10.89
2018-03-11T06:19:40.712Z,10.78
2018-03-11T06:21:02.323Z,10.81
2018-03-11T06:22:24.279Z,10.78
2018-03-11T06:23:45.892Z,10.78
2018-03-11T06:25:07.551Z,10.76
2018-03-11T06:26:29.177Z,10.74
2018-03-11T06:27:51.150Z,10.81
2018-03-11T06:29:13.030Z,10.89
2018-03-11T06:30:35.314Z,10.84
2018-03-11T06:31:56.696Z,10.89
2018-03-11T06:33:18.941Z,10.94
2018-03-11T06:34:40.616Z,11
2018-03-11T06:36:02.458Z,11.07
2018-03-11T06:37:24.530Z,11.19
2018-03-11T06:38:46.411Z,11.32
2018-03-11T06:40:08.614Z,11.67
2018-03-11T06:41:30.374Z,11.79
2018-03-11T06:42:51.975Z,11.96
2018-03-11T06:44:14.128Z,12.12
2018-03-11T06:45:36.266Z,12.32
2018-03-11T06:46:58.153Z,12.39
2018-03-11T06:48:20.053Z,12.57
2018-03-11T06:49:42.191Z,12.71
2018-03-11T06:51:04.184Z,12.79
2018-03-11T06:52:26.522Z,12.74
2018-03-11T06:53:48.153Z,12.71
2018-03-11T06:55:10.114Z,12.59
2018-03-11T06:56:32.263Z,12.86
2018-03-11T06:57:54.175Z,13.15
2018-03-11T06:59:16.070Z,13.44
2018-03-11T07:00:37.966Z,13.71
2018-03-11T07:02:00.175Z,13.99
2018-03-11T07:03:22.312Z,14.21
2018-03-11T07:04:43.950Z,14.2
2018-03-11T07:06:05.895Z,14.15
2018-03-11T07:07:27.518Z,14.27
2018-03-11T07:08:49.516Z,14.28
2018-03-11T07:10:11.407Z,14.42
2018-03-11T07:11:33.316Z,14.18
2018-03-11T07:12:55.205Z,13.99
2018-03-11T07:14:17.391Z,13.82
2018-03-11T07:15:39.013Z,13.52
2018-03-11T07:17:00.901Z,13.36
2018-03-11T07:18:22.392Z,13.44
2018-03-11T07:19:44.606Z,13.54
2018-03-11T07:21:06.741Z,13.95
2018-03-11T07:22:28.619Z,14.24
2018-03-11T07:23:50.759Z,14.57
2018-03-11T07:25:12.519Z,14.61
2018-03-11T07:26:33.906Z,14.64
2018-03-11T07:27:55.670Z,14.86
2018-03-11T07:29:17.294Z,14.99
2018-03-11T07:30:39.224Z,15.09
2018-03-11T07:32:00.830Z,14.95
2018-03-11T07:33:22.466Z,14.95
2018-03-11T07:34:44.621Z,14.73
2018-03-11T07:36:06.993Z,14.68
2018-03-11T07:37:28.632Z,14.54
2018-03-11T07:38:50.691Z,14.36
2018-03-11T07:40:12.101Z,14.22
2018-03-11T07:41:34.399Z,13.96
2018-03-11T07:42:56.039Z,13.96
2018-03-11T07:44:17.944Z,13.79
2018-03-11T07:45:39.901Z,13.81
2018-03-11T07:47:01.641Z,13.73
2018-03-11T07:48:23.256Z,13.59
2018-03-11T07:49:45.022Z,13.69
2018-03-11T07:51:06.638Z,13.67
2018-03-11T07:52:28.272Z,13.57
2018-03-11T07:53:49.904Z,13.55
2018-03-11T07:55:11.270Z,13.69
2018-03-11T07:56:33.401Z,13.73
2018-03-11T07:57:55.671Z,13.79
2018-03-11T07:59:17.387Z,13.78
2018-03-11T08:00:38.999Z,13.77
2018-03-11T08:02:00.944Z,13.92
2018-03-11T08:03:22.585Z,14.06
2018-03-11T08:04:44.897Z,13.99
2018-03-11T08:06:07.113Z,13.97
2018-03-11T08:07:29.402Z,13.82
2018-03-11T08:08:51.541Z,13.82
2018-03-11T08:10:13.486Z,13.73
2018-03-11T08:11:35.751Z,13.6
2018-03-11T08:12:57.649Z,13.75
2018-03-11T08:14:19.564Z,13.79
2018-03-11T08:15:41.470Z,13.81
2018-03-11T08:17:02.958Z,13.89
2018-03-11T08:18:25.099Z,13.97
2018-03-11T08:19:47.347Z,14.15
2018-03-11T08:21:09.246Z,14.32
2018-03-11T08:22:30.921Z,14.4
2018-03-11T08:23:52.592Z,14.46
2018-03-11T08:25:14.305Z,14.51
2018-03-11T08:26:36.212Z,14.54
2018-03-11T08:27:57.581Z,14.57
2018-03-11T08:29:19.501Z,14.52
2018-03-11T08:30:41.391Z,14.47
2018-03-11T08:32:02.633Z,14.62
2018-03-11T08:33:24.595Z,14.65
2018-03-11T08:34:46.293Z,14.72
2018-03-11T08:36:08.260Z,14.64
2018-03-11T08:37:29.654Z,14.57
2018-03-11T08:38:51.057Z,14.69
2018-03-11T08:40:12.742Z,14.91
2018-03-11T08:41:34.711Z,14.75
2018-03-11T08:42:56.344Z,14.72
2018-03-11T08:44:18.602Z,14.68
2018-03-11T08:45:40.771Z,14.52
2018-03-11T08:47:02.692Z,14.68
2018-03-11T08:48:24.970Z,14.72
2018-03-11T08:49:46.927Z,14.8
2018-03-11T08:51:08.333Z,14.73
2018-03-11T08:52:30.523Z,14.61
2018-03-11T08:53:53.007Z,14.57
2018-03-11T08:55:15.292Z,14.35
2018-03-11T08:56:37.216Z,14.46
2018-03-11T08:57:59.548Z,14.37
2018-03-11T08:59:21.495Z,14.58
2018-03-11T09:00:43.719Z,14.72
2018-03-11T09:02:05.614Z,14.83
2018-03-11T09:03:27.521Z,14.86
2018-03-11T09:04:49.714Z,14.94
2018-03-11T09:06:11.921Z,15.13
2018-03-11T09:07:33.831Z,15.1
2018-03-11T09:08:55.738Z,15.19
2018-03-11T09:10:18.007Z,15.2
2018-03-11T09:11:40.097Z,15.21
2018-03-11T09:13:02.253Z,15.31
2018-03-11T09:14:24.258Z,15.23
2018-03-11T09:15:46.430Z,15.06
2018-03-11T09:17:08.326Z,15.19
2018-03-11T09:18:30.254Z,15.43
2018-03-11T09:19:52.437Z,15.43
2018-03-11T09:21:14.417Z,15.59
2018-03-11T09:22:36.155Z,15.56
2018-03-11T09:23:57.823Z,15.51
2018-03-11T09:25:19.726Z,15.57
2018-03-11T09:26:41.872Z,15.68
2018-03-11T09:28:03.509Z,15.69
2018-03-11T09:29:25.430Z,15.69
2018-03-11T09:30:46.761Z,15.82
2018-03-11T09:32:07.850Z,15.83
2018-03-11T09:33:29.489Z,15.84
2018-03-11T09:34:51.438Z,15.86
2018-03-11T09:36:13.169Z,16.09
2018-03-11T09:37:34.791Z,16.17
2018-03-11T09:38:57.008Z,16.17
2018-03-11T09:40:18.956Z,16.11
2018-03-11T09:41:40.556Z,16
2018-03-11T09:43:02.188Z,16
2018-03-11T09:44:24.443Z,16.09
2018-03-11T09:45:46.351Z,16.38
2018-03-11T09:47:08.641Z,16.46
2018-03-11T09:48:30.713Z,16.39
2018-03-11T09:49:52.095Z,16.52
2018-03-11T09:51:13.752Z,16.66
2018-03-11T09:52:35.256Z,16.82
2018-03-11T09:53:57.552Z,16.82
2018-03-11T09:55:19.467Z,16.57
2018-03-11T09:56:41.094Z,16.52
2018-03-11T09:58:03.488Z,16.52
2018-03-11T09:59:25.111Z,16.46
2018-03-11T10:00:47.265Z,16.3
2018-03-11T10:02:09.434Z,16.42
2018-03-11T10:03:31.361Z,16.43
2018-03-11T10:04:52.761Z,16.46
2018-03-11T10:06:14.404Z,16.42
2018-03-11T10:07:36.579Z,16.49
2018-03-11T10:08:58.480Z,16.45
2018-03-11T10:10:20.476Z,16.5
2018-03-11T10:11:42.833Z,16.73
2018-03-11T10:13:04.190Z,16.83
2018-03-11T10:14:26.179Z,16.89
2018-03-11T10:15:47.821Z,16.7
2018-03-11T10:17:09.724Z,16.63
2018-03-11T10:18:31.651Z,16.67
2018-03-11T10:19:53.621Z,16.67
2018-03-11T10:21:15.794Z,16.94
2018-03-11T10:22:37.456Z,17.14
2018-03-11T10:23:59.089Z,17.33
2018-03-11T10:25:21.109Z,17.33
2018-03-11T10:26:42.489Z,17.37
2018-03-11T10:28:04.401Z,17.33
2018-03-11T10:29:26.337Z,17.23
2018-03-11T10:30:47.715Z,17.25
2018-03-11T10:32:08.915Z,17.43
2018-03-11T10:33:30.853Z,17.31
2018-03-11T10:34:52.872Z,17.26
2018-03-11T10:36:14.942Z,17.46
2018-03-11T10:37:36.932Z,17.58
2018-03-11T10:38:58.652Z,17.7
2018-03-11T10:40:20.578Z,17.89
2018-03-11T10:41:42.785Z,18.11
2018-03-11T10:43:04.724Z,18.12
2018-03-11T10:44:26.482Z,17.87
2018-03-11T10:45:48.423Z,17.62
2018-03-11T10:47:10.062Z,17.41
2018-03-11T10:48:31.963Z,17.22
2018-03-11T10:49:53.932Z,17.07
2018-03-11T10:51:15.332Z,17.06
2018-03-11T10:52:36.880Z,16.97
2018-03-11T10:53:58.988Z,16.89
2018-03-11T10:55:21.060Z,16.82
2018-03-11T10:56:42.709Z,16.67
2018-03-11T10:58:04.354Z,16.53
2018-03-11T10:59:26.651Z,16.39
2018-03-11T11:00:48.298Z,16.42
2018-03-11T11:02:10.676Z,16.42
2018-03-11T11:03:33.110Z,16.52
2018-03-11T11:04:55.512Z,16.53
2018-03-11T11:06:17.757Z,16.63
2018-03-11T11:07:39.435Z,16.81
2018-03-11T11:09:01.609Z,16.88
2018-03-11T11:10:23.009Z,16.75
2018-03-11T11:11:45.209Z,16.6
2018-03-11T11:13:07.514Z,16.61
2018-03-11T11:14:29.429Z,16.73
2018-03-11T11:15:51.076Z,16.83
2018-03-11T11:17:12.712Z,17
2018-03-11T11:18:34.347Z,17
2018-03-11T11:19:56.092Z,17.03
2018-03-11T11:21:18.177Z,17.03
2018-03-11T11:22:40.348Z,17.01
2018-03-11T11:24:02.538Z,17.01
2018-03-11T11:25:24.474Z,17.06
2018-03-11T11:26:46.862Z,17.15
2018-03-11T11:28:08.765Z,17.37
2018-03-11T11:29:31.007Z,17.54
2018-03-11T11:30:53.003Z,17.56
2018-03-11T11:32:15.200Z,17.75
2018-03-11T11:33:36.829Z,17.78
2018-03-11T11:34:58.738Z,17.66
2018-03-11T11:36:20.675Z,17.33
2018-03-11T11:37:42.641Z,17.21
2018-03-11T11:39:04.918Z,16.98
2018-03-11T11:40:27.271Z,16.78
2018-03-11T11:41:49.467Z,16.58
2018-03-11T11:43:11.454Z,16.39
2018-03-11T11:44:33.698Z,16.38
2018-03-11T11:45:55.619Z,16.39
2018-03-11T11:47:17.547Z,16.35
2018-03-11T11:48:39.193Z,16.42
2018-03-11T11:50:01.383Z,16.38
2018-03-11T11:51:23.711Z,16.3
2018-03-11T11:52:45.717Z,16.17
2018-03-11T11:54:07.911Z,16.12
2018-03-11T11:55:30.103Z,15.96
2018-03-11T11:56:51.494Z,15.86
2018-03-11T11:58:13.490Z,15.84
2018-03-11T11:59:35.402Z,15.8
2018-03-11T12:00:57.703Z,15.75
2018-03-11T12:02:19.593Z,15.76
2018-03-11T12:03:41.773Z,15.8
2018-03-11T12:05:03.702Z,15.78
2018-03-11T12:06:25.364Z,15.87
2018-03-11T12:07:47.097Z,16.01
2018-03-11T12:09:09.327Z,16.07
2018-03-11T12:10:30.971Z,16.04
2018-03-11T12:11:53.226Z,16.09
2018-03-11T12:13:15.178Z,16.05
2018-03-11T12:14:37.457Z,16.12
2018-03-11T12:15:59.683Z,16.09
2018-03-11T12:17:21.092Z,16.12
2018-03-11T12:18:42.144Z,16.07
2018-03-11T12:20:04.191Z,16.14
2018-03-11T12:21:26.118Z,16.08
2018-03-11T12:22:48.082Z,16.04
2018-03-11T12:24:10.003Z,16.02
2018-03-11T12:25:31.476Z,16.01
2018-03-11T12:26:53.110Z,16.01
2018-03-11T12:28:14.730Z,15.94
2018-03-11T12:29:36.701Z,15.86
2018-03-11T12:30:58.664Z,15.84
2018-03-11T12:32:20.336Z,15.86
2018-03-11T12:33:42.015Z,15.84
2018-03-11T12:35:04.203Z,15.65
2018-03-11T12:36:25.403Z,15.71
2018-03-11T12:37:47.713Z,15.67
2018-03-11T12:39:09.363Z,15.69
2018-03-11T12:40:31.316Z,15.68
2018-03-11T12:41:53.359Z,15.71
2018-03-11T12:43:15.313Z,15.69
2018-03-11T12:44:37.235Z,15.68
2018-03-11T12:45:59.475Z,15.54
2018-03-11T12:47:21.499Z,15.59
2018-03-11T12:48:43.428Z,15.53
2018-03-11T12:50:05.622Z,15.46
2018-03-11T12:51:27.888Z,15.38
2018-03-11T12:52:49.254Z,15.31
2018-03-11T12:54:11.151Z,15.27
2018-03-11T12:55:33.149Z,15.19
2018-03-11T12:56:55.063Z,15.29
2018-03-11T12:58:16.761Z,15.32
2018-03-11T12:59:38.691Z,15.49
2018-03-11T13:01:00.177Z,15.62
2018-03-11T13:02:22.411Z,15.69
2018-03-11T13:03:44.622Z,15.86
2018-03-11T13:05:06.564Z,16.02
2018-03-11T13:06:28.367Z,16.3
2018-03-11T13:07:50.293Z,16.43
2018-03-11T13:09:11.434Z,16.63
2018-03-11T13:10:33.096Z,16.71
2018-03-11T13:11:55.269Z,16.61
2018-03-11T13:13:16.913Z,16.5
2018-03-11T13:14:38.863Z,16.61
2018-03-11T13:16:00.781Z,16.43
2018-03-11T13:17:22.687Z,16.41
2018-03-11T13:18:44.082Z,16.48
2018-03-11T13:20:05.180Z,16.43
2018-03-11T13:21:26.858Z,16.45
2018-03-11T13:22:48.880Z,16.49
2018-03-11T13:24:11.056Z,16.63
2018-03-11T13:25:33.273Z,16.63
2018-03-11T13:26:55.523Z,16.5
2018-03-11T13:28:17.415Z,16.5
2018-03-11T13:29:39.604Z,16.6
2018-03-11T13:31:01.828Z,16.57
2018-03-11T13:32:24.041Z,16.49
2018-03-11T13:33:45.981Z,16.48
2018-03-11T13:35:07.902Z,16.52
2018-03-11T13:36:30.128Z,16.38
2018-03-11T13:37:52.294Z,16.35
2018-03-11T13:39:14.230Z,16.49
2018-03-11T13:40:36.460Z,16.63
2018-03-11T13:41:58.641Z,16.64
2018-03-11T13:43:20.993Z,16.83
2018-03-11T13:44:43.207Z,16.94
2018-03-11T13:46:05.382Z,16.93
2018-03-11T13:47:27.557Z,16.97
2018-03-11T13:48:49.844Z,17.04
2018-03-11T13:50:11.763Z,17.08
2018-03-11T13:51:34.017Z,17.21
2018-03-11T13:52:56.349Z,17.21
2018-03-11T13:54:18.326Z,17.04
2018-03-11T13:55:40.678Z,17
2018-03-11T13:57:02.953Z,17.06
2018-03-11T13:58:24.876Z,17.07
2018-03-11T13:59:47.003Z,17.12
2018-03-11T14:01:08.682Z,17.11
2018-03-11T14:02:30.415Z,17.01
2018-03-11T14:03:52.330Z,17.03
2018-03-11T14:05:14.252Z,17.07
2018-03-11T14:06:36.481Z,17.01
2018-03-11T14:07:58.195Z,16.86
2018-03-11T14:09:20.417Z,17.03
2018-03-11T14:10:42.624Z,17.03
2018-03-11T14:12:04.798Z,16.98
2018-03-11T14:13:26.717Z,17.06
2018-03-11T14:14:48.640Z,17.16
2018-03-11T14:16:10.812Z,17.06
2018-03-11T14:17:32.809Z,17.03
2018-03-11T14:18:54.776Z,17.04
2018-03-11T14:20:16.958Z,17.07
2018-03-11T14:21:38.586Z,17.06
2018-03-11T14:22:59.987Z,17.01
2018-03-11T14:24:21.901Z,17.03
2018-03-11T14:25:43.300Z,16.89
2018-03-11T14:27:05.255Z,16.86
2018-03-11T14:28:27.585Z,16.7
2018-03-11T14:29:49.304Z,16.75
2018-03-11T14:31:11.523Z,16.66
2018-03-11T14:32:33.796Z,16.64
2018-03-11T14:33:55.999Z,16.56
2018-03-11T14:35:18.185Z,16.61
2018-03-11T14:36:40.138Z,16.56
2018-03-11T14:38:02.341Z,16.52
2018-03-11T14:39:24.520Z,16.57
2018-03-11T14:40:46.698Z,16.45
2018-03-11T14:42:09.174Z,16.52
2018-03-11T14:43:30.598Z,16.5
2018-03-11T14:44:52.809Z,16.58
2018-03-11T14:46:15.006Z,16.46
2018-03-11T14:47:36.915Z,16.46
2018-03-11T14:48:58.846Z,16.34
2018-03-11T14:50:20.849Z,16.34
2018-03-11T14:51:42.906Z,16.28
2018-03-11T14:53:04.614Z,16.31
2018-03-11T14:54:26.525Z,16.31
2018-03-11T14:55:48.434Z,16.35
2018-03-11T14:57:10.653Z,16.39
2018-03-11T14:58:32.682Z,16.41
2018-03-11T14:59:54.915Z,16.45
2018-03-11T15:01:16.322Z,16.45
2018-03-11T15:02:38.367Z,16.52
2018-03-11T15:04:00.291Z,16.58
2018-03-11T15:05:21.936Z,16.61
2018-03-11T15:06:43.854Z,16.63
2018-03-11T15:08:05.521Z,16.71
2018-03-11T15:09:27.441Z,16.73
2018-03-11T15:10:49.788Z,16.67
2018-03-11T15:12:11.166Z,16.49
2018-03-11T15:13:33.244Z,16.58
2018-03-11T15:14:55.235Z,16.43
2018-03-11T15:16:17.560Z,16.43
2018-03-11T15:17:39.854Z,16.46
2018-03-11T15:19:01.761Z,16.49
2018-03-11T15:20:24.083Z,16.41
2018-03-11T15:21:46.272Z,16.43
2018-03-11T15:23:08.212Z,16.46
2018-03-11T15:24:29.575Z,16.43
2018-03-11T15:25:51.616Z,16.46
2018-03-11T15:27:13.545Z,16.46
2018-03-11T15:28:35.455Z,16.42
2018-03-11T15:29:56.676Z,16.39
2018-03-11T15:31:19.061Z,16.41
2018-03-11T15:32:41.028Z,16.42
2018-03-11T15:34:03.233Z,16.35
2018-03-11T15:35:25.469Z,16.39
2018-03-11T15:36:47.639Z,16.38
2018-03-11T15:38:09.890Z,16.42
2018-03-11T15:39:31.814Z,16.31
2018-03-11T15:40:53.740Z,16.31
2018-03-11T15:42:15.392Z,16.25
2018-03-11T15:43:37.084Z,16.21
2018-03-11T15:44:59.064Z,16.11
2018-03-11T15:46:21.377Z,16.01
2018-03-11T15:47:43.274Z,16.01
2018-03-11T15:49:04.638Z,16
2018-03-11T15:50:26.596Z,16
2018-03-11T15:51:48.557Z,15.9
2018-03-11T15:53:10.526Z,15.9
2018-03-11T15:54:32.463Z,15.9
2018-03-11T15:55:54.915Z,15.83
2018-03-11T15:57:16.832Z,15.86
2018-03-11T15:58:39.142Z,15.83
2018-03-11T16:00:01.301Z,15.76
2018-03-11T16:01:23.495Z,15.8
2018-03-11T16:02:45.281Z,15.76
2018-03-11T16:04:06.915Z,15.82
2018-03-11T16:05:29.163Z,15.8
2018-03-11T16:06:51.333Z,15.75
2018-03-11T16:08:13.014Z,15.75
2018-03-11T16:09:35.317Z,15.76
2018-03-11T16:10:57.491Z,15.69
2018-03-11T16:12:19.705Z,15.69
2018-03-11T16:13:41.866Z,15.59
2018-03-11T16:15:04.136Z,15.59
2018-03-11T16:16:26.344Z,15.53
2018-03-11T16:17:48.519Z,15.56
2018-03-11T16:19:10.487Z,15.46
2018-03-11T16:20:32.605Z,15.5
2018-03-11T16:21:54.783Z,15.46
2018-03-11T16:23:16.605Z,15.49
2018-03-11T16:24:45.386Z,15.41
2018-03-11T16:26:07.452Z,15.41
2018-03-11T16:27:28.903Z,15.32
2018-03-11T16:28:50.563Z,15.34
2018-03-11T16:30:12.494Z,15.27
2018-03-11T16:31:34.750Z,15.29
2018-03-11T16:32:56.690Z,15.14
2018-03-11T16:34:18.696Z,15.23
2018-03-11T16:35:41.081Z,15.21
2018-03-11T16:37:03.267Z,15.16
2018-03-11T16:38:25.204Z,15.13
2018-03-11T16:39:47.119Z,15.16
2018-03-11T16:41:09.350Z,15.07
2018-03-11T16:42:31.262Z,14.99
2018-03-11T16:43:53.348Z,15.06
2018-03-11T16:45:15.544Z,15.06
2018-03-11T16:46:37.580Z,14.98
2018-03-11T16:47:59.234Z,14.98
2018-03-11T16:49:21.428Z,14.96
2018-03-11T16:50:43.836Z,14.95
2018-03-11T16:52:05.866Z,14.98
2018-03-11T16:53:27.829Z,14.98
2018-03-11T16:54:49.784Z,15.01
2018-03-11T16:56:11.794Z,15.01
2018-03-11T16:57:33.861Z,14.99
2018-03-11T16:58:56.054Z,14.94
2018-03-11T17:00:17.726Z,14.96
2018-03-11T17:01:39.702Z,14.89
2018-03-11T17:03:01.324Z,14.86
2018-03-11T17:04:22.808Z,14.91
2018-03-11T17:05:44.468Z,14.83
2018-03-11T17:07:06.145Z,14.95
2018-03-11T17:08:28.397Z,14.91
2018-03-11T17:09:50.615Z,14.86
2018-03-11T17:11:12.415Z,14.95
2018-03-11T17:12:34.474Z,14.86
2018-03-11T17:13:56.385Z,14.94
2018-03-11T17:15:18.039Z,15.01
2018-03-11T17:16:39.800Z,14.99
2018-03-11T17:18:01.729Z,14.98
2018-03-11T17:19:24.034Z,15.01
2018-03-11T17:20:46.572Z,14.95
2018-03-11T17:22:08.535Z,14.84
2018-03-11T17:23:30.202Z,14.84
2018-03-11T17:24:52.154Z,14.75
2018-03-11T17:26:14.343Z,14.69
2018-03-11T17:27:35.997Z,14.64
2018-03-11T17:28:58.215Z,14.54
2018-03-11T17:30:20.127Z,14.46
2018-03-11T17:31:42.060Z,14.37
2018-03-11T17:33:03.760Z,14.25
2018-03-11T17:34:25.734Z,14.24
2018-03-11T17:35:47.682Z,14.24
2018-03-11T17:37:09.337Z,14.27
2018-03-11T17:38:31.645Z,14.18
2018-03-11T17:39:53.344Z,14.2